sensor_id;sensor_type;location;lat;lon;timestamp;P1;durP1;ratioP1;P2;durP2;ratioP2
1625;SDS011;806;48.770;9.156;2022-11-03T00:01:11;1.90;;;1.10;;
1625;SDS011;806;48.770;9.156;2022-11-03T00:03:38;2.40;;;1.00;;
1625;SDS011;806;48.770;9.156;2022-11-03T00:06:05;3.10;;;1.20;;
1625;SDS011;806;48.770;9.156;2022-11-03T00:08:39;2.00;;;1.20;;
1625;SDS011;806;48.770;9.156;2022-11-03T00:11:08;4.33;;;1.20;;
1625;SDS011;806;48.770;9.156;2022-11-03T00:13:37;1.65;;;1.10;;
1625;SDS011;806;48.770;9.156;2022-11-03T00:16:08;3.03;;;1.00;;
1625;SDS011;806;48.770;9.156;2022-11-03T00:18:37;2.90;;;1.17;;
1625;SDS011;806;48.770;9.156;2022-11-03T00:21:05;2.80;;;1.35;;
1625;SDS011;806;48.770;9.156;2022-11-03T00:23:34;3.13;;;1.38;;
1625;SDS011;806;48.770;9.156;2022-11-03T00:26:05;2.90;;;1.00;;
1625;SDS011;806;48.770;9.156;2022-11-03T00:28:34;3.90;;;1.40;;
1625;SDS011;806;48.770;9.156;2022-11-03T00:31:04;2.80;;;1.20;;
1625;SDS011;806;48.770;9.156;2022-11-03T00:33:33;3.97;;;1.30;;
1625;SDS011;806;48.770;9.156;2022-11-03T00:36:00;2.00;;;1.20;;
1625;SDS011;806;48.770;9.156;2022-11-03T00:38:28;4.05;;;1.00;;
1625;SDS011;806;48.770;9.156;2022-11-03T00:40:57;2.70;;;1.50;;
1625;SDS011;806;48.770;9.156;2022-11-03T00:43:25;4.40;;;1.33;;
1625;SDS011;806;48.770;9.156;2022-11-03T00:45:54;2.90;;;1.10;;
1625;SDS011;806;48.770;9.156;2022-11-03T00:48:22;2.40;;;1.10;;
1625;SDS011;806;48.770;9.156;2022-11-03T00:50:58;2.90;;;1.27;;
1625;SDS011;806;48.770;9.156;2022-11-03T00:53:29;3.47;;;1.27;;
1625;SDS011;806;48.770;9.156;2022-11-03T00:55:59;3.58;;;1.15;;
1625;SDS011;806;48.770;9.156;2022-11-03T00:58:26;2.10;;;1.20;;
1625;SDS011;806;48.770;9.156;2022-11-03T01:01:00;2.28;;;1.10;;
1625;SDS011;806;48.770;9.156;2022-11-03T01:03:30;1.90;;;1.10;;
1625;SDS011;806;48.770;9.156;2022-11-03T01:05:57;3.75;;;1.50;;
1625;SDS011;806;48.770;9.156;2022-11-03T01:08:42;3.42;;;1.40;;
1625;SDS011;806;48.770;9.156;2022-11-03T01:11:11;4.25;;;1.90;;
1625;SDS011;806;48.770;9.156;2022-11-03T01:13:57;2.00;;;1.33;;
1625;SDS011;806;48.770;9.156;2022-11-03T01:16:25;4.30;;;1.35;;
1625;SDS011;806;48.770;9.156;2022-11-03T01:18:52;2.70;;;1.50;;
1625;SDS011;806;48.770;9.156;2022-11-03T01:21:20;3.50;;;1.40;;
1625;SDS011;806;48.770;9.156;2022-11-03T01:23:47;4.50;;;1.70;;
1625;SDS011;806;48.770;9.156;2022-11-03T01:26:16;2.60;;;1.50;;
1625;SDS011;806;48.770;9.156;2022-11-03T01:28:43;3.45;;;1.58;;
1625;SDS011;806;48.770;9.156;2022-11-03T01:31:13;3.92;;;1.33;;
1625;SDS011;806;48.770;9.156;2022-11-03T01:33:41;4.93;;;1.50;;
1625;SDS011;806;48.770;9.156;2022-11-03T01:36:10;3.60;;;1.50;;
1625;SDS011;806;48.770;9.156;2022-11-03T01:38:38;3.78;;;1.45;;
1625;SDS011;806;48.770;9.156;2022-11-03T01:41:06;2.42;;;1.30;;
1625;SDS011;806;48.770;9.156;2022-11-03T01:43:37;3.28;;;1.50;;
1625;SDS011;806;48.770;9.156;2022-11-03T01:46:06;4.30;;;1.23;;
1625;SDS011;806;48.770;9.156;2022-11-03T01:48:42;1.80;;;1.20;;
1625;SDS011;806;48.770;9.156;2022-11-03T01:51:14;2.78;;;1.10;;
1625;SDS011;806;48.770;9.156;2022-11-03T01:53:43;4.90;;;1.10;;
1625;SDS011;806;48.770;9.156;2022-11-03T01:56:13;3.63;;;1.10;;
1625;SDS011;806;48.770;9.156;2022-11-03T01:58:43;3.22;;;1.10;;
1625;SDS011;806;48.770;9.156;2022-11-03T02:01:17;3.22;;;0.90;;
1625;SDS011;806;48.770;9.156;2022-11-03T02:03:45;2.75;;;1.00;;
1625;SDS011;806;48.770;9.156;2022-11-03T02:06:16;3.90;;;1.00;;
1625;SDS011;806;48.770;9.156;2022-11-03T02:08:46;1.80;;;0.90;;
1625;SDS011;806;48.770;9.156;2022-11-03T02:11:16;1.88;;;0.90;;
1625;SDS011;806;48.770;9.156;2022-11-03T02:14:01;2.00;;;0.80;;
1625;SDS011;806;48.770;9.156;2022-11-03T02:16:29;2.55;;;0.80;;
1625;SDS011;806;48.770;9.156;2022-11-03T02:18:57;2.92;;;0.80;;
1625;SDS011;806;48.770;9.156;2022-11-03T02:21:28;1.65;;;0.80;;
1625;SDS011;806;48.770;9.156;2022-11-03T02:24:00;2.35;;;0.90;;
1625;SDS011;806;48.770;9.156;2022-11-03T02:26:33;1.70;;;0.73;;
1625;SDS011;806;48.770;9.156;2022-11-03T02:29:01;2.80;;;0.88;;
1625;SDS011;806;48.770;9.156;2022-11-03T02:31:29;1.30;;;0.70;;
1625;SDS011;806;48.770;9.156;2022-11-03T02:34:03;1.00;;;0.70;;
1625;SDS011;806;48.770;9.156;2022-11-03T02:36:39;0.93;;;0.60;;
1625;SDS011;806;48.770;9.156;2022-11-03T02:39:11;1.40;;;0.70;;
1625;SDS011;806;48.770;9.156;2022-11-03T02:41:45;2.85;;;0.70;;
1625;SDS011;806;48.770;9.156;2022-11-03T02:44:14;2.90;;;0.70;;
1625;SDS011;806;48.770;9.156;2022-11-03T02:46:45;2.70;;;0.80;;
1625;SDS011;806;48.770;9.156;2022-11-03T02:49:15;1.98;;;0.70;;
1625;SDS011;806;48.770;9.156;2022-11-03T02:51:44;1.42;;;0.80;;
1625;SDS011;806;48.770;9.156;2022-11-03T02:54:13;1.90;;;0.75;;
1625;SDS011;806;48.770;9.156;2022-11-03T02:56:48;2.00;;;0.70;;
1625;SDS011;806;48.770;9.156;2022-11-03T02:59:18;2.33;;;0.70;;
1625;SDS011;806;48.770;9.156;2022-11-03T03:01:49;2.50;;;0.80;;
1625;SDS011;806;48.770;9.156;2022-11-03T03:04:20;2.08;;;0.90;;
1625;SDS011;806;48.770;9.156;2022-11-03T03:06:52;2.28;;;0.70;;
1625;SDS011;806;48.770;9.156;2022-11-03T03:09:24;1.10;;;0.60;;
1625;SDS011;806;48.770;9.156;2022-11-03T03:11:55;1.73;;;0.80;;
1625;SDS011;806;48.770;9.156;2022-11-03T03:14:26;2.08;;;0.77;;
1625;SDS011;806;48.770;9.156;2022-11-03T03:16:57;2.30;;;0.70;;
1625;SDS011;806;48.770;9.156;2022-11-03T03:19:28;1.83;;;0.90;;
1625;SDS011;806;48.770;9.156;2022-11-03T03:22:06;1.88;;;0.90;;
1625;SDS011;806;48.770;9.156;2022-11-03T03:24:42;1.70;;;0.70;;
1625;SDS011;806;48.770;9.156;2022-11-03T03:27:14;1.30;;;0.80;;
1625;SDS011;806;48.770;9.156;2022-11-03T03:29:45;1.23;;;0.70;;
1625;SDS011;806;48.770;9.156;2022-11-03T03:32:15;2.53;;;0.90;;
1625;SDS011;806;48.770;9.156;2022-11-03T03:34:47;2.73;;;0.90;;
1625;SDS011;806;48.770;9.156;2022-11-03T03:37:15;1.90;;;0.75;;
1625;SDS011;806;48.770;9.156;2022-11-03T03:39:45;2.08;;;0.80;;
1625;SDS011;806;48.770;9.156;2022-11-03T03:42:19;1.40;;;0.80;;
1625;SDS011;806;48.770;9.156;2022-11-03T03:44:47;1.63;;;0.90;;
1625;SDS011;806;48.770;9.156;2022-11-03T03:47:16;1.83;;;0.90;;
1625;SDS011;806;48.770;9.156;2022-11-03T03:49:47;1.70;;;0.90;;
1625;SDS011;806;48.770;9.156;2022-11-03T03:52:14;1.80;;;0.80;;
1625;SDS011;806;48.770;9.156;2022-11-03T03:54:42;2.20;;;1.00;;
1625;SDS011;806;48.770;9.156;2022-11-03T03:57:10;3.20;;;0.90;;
1625;SDS011;806;48.770;9.156;2022-11-03T03:59:41;2.30;;;0.82;;
1625;SDS011;806;48.770;9.156;2022-11-03T04:02:09;2.50;;;1.13;;
1625;SDS011;806;48.770;9.156;2022-11-03T04:04:36;3.00;;;1.00;;
1625;SDS011;806;48.770;9.156;2022-11-03T04:07:04;4.97;;;0.90;;
1625;SDS011;806;48.770;9.156;2022-11-03T04:09:48;4.10;;;1.00;;
1625;SDS011;806;48.770;9.156;2022-11-03T04:12:15;1.98;;;0.80;;
1625;SDS011;806;48.770;9.156;2022-11-03T04:15:01;2.80;;;0.90;;
1625;SDS011;806;48.770;9.156;2022-11-03T04:17:46;3.67;;;1.00;;
1625;SDS011;806;48.770;9.156;2022-11-03T04:20:31;2.10;;;0.90;;
1625;SDS011;806;48.770;9.156;2022-11-03T04:23:16;3.10;;;0.98;;
1625;SDS011;806;48.770;9.156;2022-11-03T04:25:45;2.87;;;1.40;;
1625;SDS011;806;48.770;9.156;2022-11-03T04:28:15;3.05;;;1.15;;
1625;SDS011;806;48.770;9.156;2022-11-03T04:30:43;2.10;;;1.00;;
1625;SDS011;806;48.770;9.156;2022-11-03T04:33:11;2.30;;;1.10;;
1625;SDS011;806;48.770;9.156;2022-11-03T04:35:41;4.03;;;1.35;;
1625;SDS011;806;48.770;9.156;2022-11-03T04:38:17;1.50;;;1.00;;
1625;SDS011;806;48.770;9.156;2022-11-03T04:40:48;2.40;;;1.10;;
1625;SDS011;806;48.770;9.156;2022-11-03T04:43:19;2.83;;;1.20;;
1625;SDS011;806;48.770;9.156;2022-11-03T04:45:49;2.70;;;1.10;;
1625;SDS011;806;48.770;9.156;2022-11-03T04:48:17;2.90;;;1.20;;
1625;SDS011;806;48.770;9.156;2022-11-03T04:50:47;2.45;;;1.00;;
1625;SDS011;806;48.770;9.156;2022-11-03T04:53:17;7.28;;;1.02;;
1625;SDS011;806;48.770;9.156;2022-11-03T04:55:46;2.13;;;1.00;;
1625;SDS011;806;48.770;9.156;2022-11-03T04:58:17;1.80;;;1.00;;
1625;SDS011;806;48.770;9.156;2022-11-03T05:00:45;1.80;;;1.10;;
1625;SDS011;806;48.770;9.156;2022-11-03T05:03:16;2.90;;;1.13;;
1625;SDS011;806;48.770;9.156;2022-11-03T05:05:47;4.88;;;1.00;;
1625;SDS011;806;48.770;9.156;2022-11-03T05:08:15;2.83;;;1.20;;
1625;SDS011;806;48.770;9.156;2022-11-03T05:10:44;2.33;;;1.20;;
1625;SDS011;806;48.770;9.156;2022-11-03T05:13:14;3.70;;;1.10;;
1625;SDS011;806;48.770;9.156;2022-11-03T05:15:46;3.80;;;1.20;;
1625;SDS011;806;48.770;9.156;2022-11-03T05:18:19;2.50;;;1.20;;
1625;SDS011;806;48.770;9.156;2022-11-03T05:20:49;3.38;;;1.20;;
1625;SDS011;806;48.770;9.156;2022-11-03T05:23:21;7.63;;;1.50;;
1625;SDS011;806;48.770;9.156;2022-11-03T05:25:49;3.07;;;1.20;;
1625;SDS011;806;48.770;9.156;2022-11-03T05:28:20;2.40;;;1.20;;
1625;SDS011;806;48.770;9.156;2022-11-03T05:30:49;3.00;;;1.20;;
1625;SDS011;806;48.770;9.156;2022-11-03T05:33:25;2.35;;;1.10;;
1625;SDS011;806;48.770;9.156;2022-11-03T05:35:54;2.20;;;1.10;;
1625;SDS011;806;48.770;9.156;2022-11-03T05:38:23;2.60;;;1.10;;
1625;SDS011;806;48.770;9.156;2022-11-03T05:40:54;1.70;;;1.00;;
1625;SDS011;806;48.770;9.156;2022-11-03T05:43:21;2.10;;;1.10;;
1625;SDS011;806;48.770;9.156;2022-11-03T05:45:48;3.15;;;1.20;;
1625;SDS011;806;48.770;9.156;2022-11-03T05:48:20;1.50;;;0.90;;
1625;SDS011;806;48.770;9.156;2022-11-03T05:50:53;2.17;;;0.90;;
1625;SDS011;806;48.770;9.156;2022-11-03T05:53:25;3.53;;;1.00;;
1625;SDS011;806;48.770;9.156;2022-11-03T05:55:54;2.63;;;0.80;;
1625;SDS011;806;48.770;9.156;2022-11-03T05:58:24;3.10;;;1.00;;
1625;SDS011;806;48.770;9.156;2022-11-03T06:00:54;2.90;;;0.90;;
1625;SDS011;806;48.770;9.156;2022-11-03T06:03:23;2.53;;;0.77;;
1625;SDS011;806;48.770;9.156;2022-11-03T06:05:53;1.63;;;0.70;;
1625;SDS011;806;48.770;9.156;2022-11-03T06:08:23;2.23;;;0.77;;
1625;SDS011;806;48.770;9.156;2022-11-03T06:10:56;2.00;;;0.90;;
1625;SDS011;806;48.770;9.156;2022-11-03T06:13:26;2.43;;;0.70;;
1625;SDS011;806;48.770;9.156;2022-11-03T06:15:57;2.83;;;0.80;;
1625;SDS011;806;48.770;9.156;2022-11-03T06:18:30;1.67;;;0.80;;
1625;SDS011;806;48.770;9.156;2022-11-03T06:21:02;2.27;;;0.80;;
1625;SDS011;806;48.770;9.156;2022-11-03T06:23:32;1.40;;;0.70;;
1625;SDS011;806;48.770;9.156;2022-11-03T06:26:03;2.20;;;0.80;;
1625;SDS011;806;48.770;9.156;2022-11-03T06:28:39;2.30;;;0.90;;
1625;SDS011;806;48.770;9.156;2022-11-03T06:31:10;1.57;;;0.80;;
1625;SDS011;806;48.770;9.156;2022-11-03T06:33:44;3.67;;;0.90;;
1625;SDS011;806;48.770;9.156;2022-11-03T06:36:12;2.33;;;0.80;;
1625;SDS011;806;48.770;9.156;2022-11-03T06:38:43;3.53;;;0.90;;
1625;SDS011;806;48.770;9.156;2022-11-03T06:41:16;2.60;;;0.80;;
1625;SDS011;806;48.770;9.156;2022-11-03T06:43:48;1.73;;;1.07;;
1625;SDS011;806;48.770;9.156;2022-11-03T06:46:17;5.07;;;0.90;;
1625;SDS011;806;48.770;9.156;2022-11-03T06:48:47;1.50;;;0.87;;
1625;SDS011;806;48.770;9.156;2022-11-03T06:51:15;1.63;;;1.07;;
1625;SDS011;806;48.770;9.156;2022-11-03T06:53:45;3.30;;;0.80;;
1625;SDS011;806;48.770;9.156;2022-11-03T06:56:15;3.03;;;0.93;;
1625;SDS011;806;48.770;9.156;2022-11-03T06:58:46;3.37;;;1.00;;
1625;SDS011;806;48.770;9.156;2022-11-03T07:01:15;1.30;;;0.90;;
1625;SDS011;806;48.770;9.156;2022-11-03T07:03:47;2.07;;;0.70;;
1625;SDS011;806;48.770;9.156;2022-11-03T07:06:17;1.87;;;0.80;;
1625;SDS011;806;48.770;9.156;2022-11-03T07:08:48;2.20;;;0.80;;
1625;SDS011;806;48.770;9.156;2022-11-03T07:11:18;1.77;;;0.90;;
1625;SDS011;806;48.770;9.156;2022-11-03T07:13:46;3.67;;;1.10;;
1625;SDS011;806;48.770;9.156;2022-11-03T07:16:15;2.30;;;0.87;;
1625;SDS011;806;48.770;9.156;2022-11-03T07:18:49;2.43;;;0.93;;
1625;SDS011;806;48.770;9.156;2022-11-03T08:38:02;2.03;;;0.70;;
1625;SDS011;806;48.770;9.156;2022-11-03T08:40:29;3.30;;;0.80;;
1625;SDS011;806;48.770;9.156;2022-11-03T08:42:58;3.73;;;0.70;;
1625;SDS011;806;48.770;9.156;2022-11-03T08:45:27;1.77;;;0.60;;
1625;SDS011;806;48.770;9.156;2022-11-03T08:47:54;4.47;;;0.73;;
1625;SDS011;806;48.770;9.156;2022-11-03T08:50:21;2.90;;;0.77;;
1625;SDS011;806;48.770;9.156;2022-11-03T08:52:48;0.97;;;0.60;;
1625;SDS011;806;48.770;9.156;2022-11-03T08:55:15;1.00;;;0.60;;
1625;SDS011;806;48.770;9.156;2022-11-03T08:57:42;1.13;;;0.70;;
1625;SDS011;806;48.770;9.156;2022-11-03T09:00:11;0.90;;;0.50;;
1625;SDS011;806;48.770;9.156;2022-11-03T09:02:40;0.90;;;0.60;;
1625;SDS011;806;48.770;9.156;2022-11-03T09:05:08;1.63;;;0.60;;
1625;SDS011;806;48.770;9.156;2022-11-03T09:07:36;2.20;;;0.60;;
1625;SDS011;806;48.770;9.156;2022-11-03T09:10:04;1.00;;;0.50;;
1625;SDS011;806;48.770;9.156;2022-11-03T09:12:32;2.73;;;0.60;;
1625;SDS011;806;48.770;9.156;2022-11-03T09:14:59;0.93;;;0.60;;
1625;SDS011;806;48.770;9.156;2022-11-03T09:17:27;1.57;;;0.53;;
1625;SDS011;806;48.770;9.156;2022-11-03T09:19:54;0.90;;;0.50;;
1625;SDS011;806;48.770;9.156;2022-11-03T09:22:21;0.70;;;0.50;;
1625;SDS011;806;48.770;9.156;2022-11-03T09:24:48;1.10;;;0.50;;
1625;SDS011;806;48.770;9.156;2022-11-03T09:27:15;3.77;;;0.40;;
1625;SDS011;806;48.770;9.156;2022-11-03T09:29:42;1.20;;;0.50;;
1625;SDS011;806;48.770;9.156;2022-11-03T09:32:10;1.37;;;0.50;;
1625;SDS011;806;48.770;9.156;2022-11-03T09:34:38;1.10;;;0.50;;
1625;SDS011;806;48.770;9.156;2022-11-03T09:37:05;1.97;;;0.60;;
1625;SDS011;806;48.770;9.156;2022-11-03T09:39:32;1.57;;;1.03;;
1625;SDS011;806;48.770;9.156;2022-11-03T09:41:59;0.80;;;0.50;;
1625;SDS011;806;48.770;9.156;2022-11-03T09:44:28;1.63;;;0.60;;
1625;SDS011;806;48.770;9.156;2022-11-03T09:46:57;2.07;;;0.50;;
1625;SDS011;806;48.770;9.156;2022-11-03T09:49:25;1.30;;;0.60;;
1625;SDS011;806;48.770;9.156;2022-11-03T09:51:55;1.07;;;0.60;;
1625;SDS011;806;48.770;9.156;2022-11-03T09:54:22;1.60;;;0.80;;
1625;SDS011;806;48.770;9.156;2022-11-03T09:56:53;1.17;;;0.60;;
1625;SDS011;806;48.770;9.156;2022-11-03T09:59:23;1.13;;;0.30;;
1625;SDS011;806;48.770;9.156;2022-11-03T10:01:50;3.20;;;0.80;;
1625;SDS011;806;48.770;9.156;2022-11-03T10:04:23;1.00;;;0.53;;
1625;SDS011;806;48.770;9.156;2022-11-03T10:06:52;1.43;;;0.50;;
1625;SDS011;806;48.770;9.156;2022-11-03T10:09:21;3.20;;;0.60;;
1625;SDS011;806;48.770;9.156;2022-11-03T10:11:49;1.23;;;0.50;;
1625;SDS011;806;48.770;9.156;2022-11-03T10:14:18;4.77;;;0.70;;
1625;SDS011;806;48.770;9.156;2022-11-03T10:16:48;1.10;;;0.50;;
1625;SDS011;806;48.770;9.156;2022-11-03T10:19:24;0.70;;;0.50;;
1625;SDS011;806;48.770;9.156;2022-11-03T10:21:51;0.70;;;0.40;;
1625;SDS011;806;48.770;9.156;2022-11-03T10:24:20;1.10;;;0.50;;
1625;SDS011;806;48.770;9.156;2022-11-03T10:26:47;0.70;;;0.47;;
1625;SDS011;806;48.770;9.156;2022-11-03T10:29:17;1.53;;;0.40;;
1625;SDS011;806;48.770;9.156;2022-11-03T10:31:45;1.23;;;0.50;;
1625;SDS011;806;48.770;9.156;2022-11-03T10:34:31;0.90;;;0.40;;
1625;SDS011;806;48.770;9.156;2022-11-03T10:37:13;0.87;;;0.53;;
1625;SDS011;806;48.770;9.156;2022-11-03T10:39:46;1.70;;;0.60;;
1625;SDS011;806;48.770;9.156;2022-11-03T10:42:17;0.50;;;0.37;;
1625;SDS011;806;48.770;9.156;2022-11-03T10:44:46;1.10;;;0.50;;
1625;SDS011;806;48.770;9.156;2022-11-03T10:47:21;1.20;;;0.40;;
1625;SDS011;806;48.770;9.156;2022-11-03T10:49:50;1.20;;;0.60;;
1625;SDS011;806;48.770;9.156;2022-11-03T10:52:20;1.37;;;0.60;;
1625;SDS011;806;48.770;9.156;2022-11-03T10:54:51;1.57;;;0.50;;
1625;SDS011;806;48.770;9.156;2022-11-03T10:57:23;1.37;;;0.60;;
1625;SDS011;806;48.770;9.156;2022-11-03T10:59:52;1.97;;;0.57;;
1625;SDS011;806;48.770;9.156;2022-11-03T11:02:21;1.10;;;0.50;;
1625;SDS011;806;48.770;9.156;2022-11-03T11:04:52;2.70;;;0.57;;
1625;SDS011;806;48.770;9.156;2022-11-03T11:07:26;1.00;;;0.63;;
1625;SDS011;806;48.770;9.156;2022-11-03T11:09:59;1.73;;;0.60;;
1625;SDS011;806;48.770;9.156;2022-11-03T11:12:32;1.90;;;0.70;;
1625;SDS011;806;48.770;9.156;2022-11-03T11:14:59;0.73;;;0.50;;
1625;SDS011;806;48.770;9.156;2022-11-03T11:17:44;1.10;;;0.60;;
1625;SDS011;806;48.770;9.156;2022-11-03T11:20:30;0.73;;;0.60;;
1625;SDS011;806;48.770;9.156;2022-11-03T11:26:15;2.20;;;0.80;;
1625;SDS011;806;48.770;9.156;2022-11-03T11:52:59;1.00;;;0.40;;
1625;SDS011;806;48.770;9.156;2022-11-03T11:55:37;1.10;;;0.60;;
1625;SDS011;806;48.770;9.156;2022-11-03T11:58:21;1.63;;;0.60;;
1625;SDS011;806;48.770;9.156;2022-11-03T12:00:52;1.40;;;0.70;;
1625;SDS011;806;48.770;9.156;2022-11-03T12:03:26;1.10;;;0.60;;
1625;SDS011;806;48.770;9.156;2022-11-03T12:05:56;1.20;;;0.57;;
1625;SDS011;806;48.770;9.156;2022-11-03T12:08:26;2.37;;;0.60;;
1625;SDS011;806;48.770;9.156;2022-11-03T12:10:55;1.13;;;0.50;;
1625;SDS011;806;48.770;9.156;2022-11-03T12:16:30;0.83;;;0.50;;
1625;SDS011;806;48.770;9.156;2022-11-03T12:21:59;1.10;;;0.60;;
1625;SDS011;806;48.770;9.156;2022-11-03T12:24:37;1.67;;;0.60;;
1625;SDS011;806;48.770;9.156;2022-11-03T12:27:17;0.80;;;0.50;;
1625;SDS011;806;48.770;9.156;2022-11-03T12:30:05;0.87;;;0.60;;
1625;SDS011;806;48.770;9.156;2022-11-03T12:32:40;0.97;;;0.60;;
1625;SDS011;806;48.770;9.156;2022-11-03T12:35:07;0.90;;;0.50;;
1625;SDS011;806;48.770;9.156;2022-11-03T12:37:38;0.90;;;0.50;;
1625;SDS011;806;48.770;9.156;2022-11-03T12:40:06;1.30;;;0.50;;
1625;SDS011;806;48.770;9.156;2022-11-03T12:42:34;0.80;;;0.50;;
1625;SDS011;806;48.770;9.156;2022-11-03T12:45:01;1.10;;;0.70;;
1625;SDS011;806;48.770;9.156;2022-11-03T12:47:28;1.57;;;0.60;;
1625;SDS011;806;48.770;9.156;2022-11-03T12:49:57;0.90;;;0.50;;
1625;SDS011;806;48.770;9.156;2022-11-03T12:52:24;1.60;;;0.60;;
1625;SDS011;806;48.770;9.156;2022-11-03T12:54:51;3.50;;;0.63;;
1625;SDS011;806;48.770;9.156;2022-11-03T12:57:17;2.20;;;0.53;;
1625;SDS011;806;48.770;9.156;2022-11-03T12:59:44;2.10;;;0.60;;
1625;SDS011;806;48.770;9.156;2022-11-03T13:02:11;1.90;;;0.60;;
1625;SDS011;806;48.770;9.156;2022-11-03T13:04:38;2.30;;;0.50;;
1625;SDS011;806;48.770;9.156;2022-11-03T13:07:06;1.00;;;0.70;;
1625;SDS011;806;48.770;9.156;2022-11-03T13:09:34;1.90;;;0.80;;
1625;SDS011;806;48.770;9.156;2022-11-03T13:12:01;1.00;;;0.60;;
1625;SDS011;806;48.770;9.156;2022-11-03T13:14:45;1.20;;;0.60;;
1625;SDS011;806;48.770;9.156;2022-11-03T13:17:12;1.00;;;0.60;;
1625;SDS011;806;48.770;9.156;2022-11-03T13:19:39;0.90;;;0.60;;
1625;SDS011;806;48.770;9.156;2022-11-03T13:22:07;1.00;;;0.90;;
1625;SDS011;806;48.770;9.156;2022-11-03T13:24:34;1.50;;;0.73;;
1625;SDS011;806;48.770;9.156;2022-11-03T13:27:01;0.93;;;0.60;;
1625;SDS011;806;48.770;9.156;2022-11-03T13:29:28;0.90;;;0.60;;
1625;SDS011;806;48.770;9.156;2022-11-03T13:31:55;1.20;;;0.70;;
1625;SDS011;806;48.770;9.156;2022-11-03T13:34:22;2.20;;;0.90;;
1625;SDS011;806;48.770;9.156;2022-11-03T13:36:49;2.07;;;0.67;;
1625;SDS011;806;48.770;9.156;2022-11-03T13:39:18;2.30;;;0.60;;
1625;SDS011;806;48.770;9.156;2022-11-03T13:41:45;1.57;;;0.73;;
1625;SDS011;806;48.770;9.156;2022-11-03T13:44:12;1.57;;;0.70;;
1625;SDS011;806;48.770;9.156;2022-11-03T13:46:39;2.00;;;0.70;;
1625;SDS011;806;48.770;9.156;2022-11-03T13:49:06;1.77;;;0.80;;
1625;SDS011;806;48.770;9.156;2022-11-03T13:51:33;1.30;;;0.70;;
1625;SDS011;806;48.770;9.156;2022-11-03T13:54:00;2.03;;;0.80;;
1625;SDS011;806;48.770;9.156;2022-11-03T13:56:28;1.80;;;0.70;;
1625;SDS011;806;48.770;9.156;2022-11-03T13:58:55;1.23;;;0.60;;
1625;SDS011;806;48.770;9.156;2022-11-03T14:01:25;1.30;;;0.70;;
1625;SDS011;806;48.770;9.156;2022-11-03T14:03:52;2.30;;;0.80;;
1625;SDS011;806;48.770;9.156;2022-11-03T14:06:22;1.93;;;0.80;;
1625;SDS011;806;48.770;9.156;2022-11-03T14:08:49;2.13;;;0.90;;
1625;SDS011;806;48.770;9.156;2022-11-03T14:11:16;1.57;;;0.87;;
1625;SDS011;806;48.770;9.156;2022-11-03T14:14:02;5.37;;;1.30;;
1625;SDS011;806;48.770;9.156;2022-11-03T14:16:29;2.77;;;0.90;;
1625;SDS011;806;48.770;9.156;2022-11-03T14:18:56;6.23;;;1.10;;
1625;SDS011;806;48.770;9.156;2022-11-03T14:21:23;1.43;;;0.93;;
1625;SDS011;806;48.770;9.156;2022-11-03T14:23:50;1.47;;;1.00;;
1625;SDS011;806;48.770;9.156;2022-11-03T14:26:17;1.27;;;0.80;;
1625;SDS011;806;48.770;9.156;2022-11-03T14:28:44;1.80;;;0.90;;
1625;SDS011;806;48.770;9.156;2022-11-03T14:31:15;2.03;;;0.77;;
1625;SDS011;806;48.770;9.156;2022-11-03T14:33:42;2.40;;;0.80;;
1625;SDS011;806;48.770;9.156;2022-11-03T14:36:09;2.50;;;0.80;;
1625;SDS011;806;48.770;9.156;2022-11-03T14:38:37;2.17;;;1.00;;
1625;SDS011;806;48.770;9.156;2022-11-03T14:41:04;2.23;;;1.10;;
1625;SDS011;806;48.770;9.156;2022-11-03T14:43:48;2.53;;;0.80;;
1625;SDS011;806;48.770;9.156;2022-11-03T14:46:20;4.17;;;0.90;;
1625;SDS011;806;48.770;9.156;2022-11-03T14:48:47;1.57;;;0.90;;
1625;SDS011;806;48.770;9.156;2022-11-03T14:51:14;1.87;;;0.90;;
1625;SDS011;806;48.770;9.156;2022-11-03T14:53:41;2.47;;;0.90;;
1625;SDS011;806;48.770;9.156;2022-11-03T14:56:08;2.60;;;1.00;;
1625;SDS011;806;48.770;9.156;2022-11-03T14:58:36;1.97;;;1.00;;
1625;SDS011;806;48.770;9.156;2022-11-03T15:01:03;2.50;;;1.00;;
1625;SDS011;806;48.770;9.156;2022-11-03T15:03:32;3.33;;;0.90;;
1625;SDS011;806;48.770;9.156;2022-11-03T15:05:59;4.90;;;1.00;;
1625;SDS011;806;48.770;9.156;2022-11-03T15:08:26;4.30;;;1.10;;
1625;SDS011;806;48.770;9.156;2022-11-03T15:10:55;3.10;;;0.90;;
1625;SDS011;806;48.770;9.156;2022-11-03T15:13:22;1.87;;;1.13;;
1625;SDS011;806;48.770;9.156;2022-11-03T15:15:49;3.33;;;0.97;;
1625;SDS011;806;48.770;9.156;2022-11-03T15:18:19;1.20;;;0.80;;
1625;SDS011;806;48.770;9.156;2022-11-03T15:20:47;1.63;;;1.00;;
1625;SDS011;806;48.770;9.156;2022-11-03T15:23:14;2.93;;;0.90;;
1625;SDS011;806;48.770;9.156;2022-11-03T15:25:41;1.13;;;0.70;;
1625;SDS011;806;48.770;9.156;2022-11-03T15:28:08;2.50;;;0.90;;
1625;SDS011;806;48.770;9.156;2022-11-03T15:30:35;1.83;;;0.93;;
1625;SDS011;806;48.770;9.156;2022-11-03T15:33:05;1.00;;;0.80;;
1625;SDS011;806;48.770;9.156;2022-11-03T15:35:33;2.70;;;0.90;;
1625;SDS011;806;48.770;9.156;2022-11-03T15:38:01;1.13;;;0.87;;
1625;SDS011;806;48.770;9.156;2022-11-03T15:40:28;1.87;;;0.90;;
1625;SDS011;806;48.770;9.156;2022-11-03T15:42:55;2.43;;;1.10;;
1625;SDS011;806;48.770;9.156;2022-11-03T15:45:25;1.63;;;0.80;;
1625;SDS011;806;48.770;9.156;2022-11-03T15:47:54;1.20;;;0.90;;
1625;SDS011;806;48.770;9.156;2022-11-03T15:50:21;1.33;;;0.90;;
1625;SDS011;806;48.770;9.156;2022-11-03T15:52:49;3.50;;;1.00;;
1625;SDS011;806;48.770;9.156;2022-11-03T15:55:22;1.30;;;0.90;;
1625;SDS011;806;48.770;9.156;2022-11-03T15:57:51;1.73;;;1.00;;
1625;SDS011;806;48.770;9.156;2022-11-03T16:00:18;2.00;;;0.90;;
1625;SDS011;806;48.770;9.156;2022-11-03T16:02:45;1.10;;;0.90;;
1625;SDS011;806;48.770;9.156;2022-11-03T16:05:15;2.80;;;0.90;;
1625;SDS011;806;48.770;9.156;2022-11-03T16:07:45;7.90;;;1.30;;
1625;SDS011;806;48.770;9.156;2022-11-03T16:10:11;1.87;;;1.00;;
1625;SDS011;806;48.770;9.156;2022-11-03T16:12:43;3.37;;;0.80;;
1625;SDS011;806;48.770;9.156;2022-11-03T16:15:10;2.40;;;1.13;;
1625;SDS011;806;48.770;9.156;2022-11-03T16:17:37;2.43;;;1.13;;
1625;SDS011;806;48.770;9.156;2022-11-03T16:20:04;1.53;;;0.90;;
1625;SDS011;806;48.770;9.156;2022-11-03T16:22:32;2.83;;;1.10;;
1625;SDS011;806;48.770;9.156;2022-11-03T16:25:08;3.70;;;1.10;;
1625;SDS011;806;48.770;9.156;2022-11-03T16:27:35;2.37;;;1.03;;
1625;SDS011;806;48.770;9.156;2022-11-03T16:30:07;2.43;;;0.90;;
1625;SDS011;806;48.770;9.156;2022-11-03T16:32:35;3.47;;;1.00;;
1625;SDS011;806;48.770;9.156;2022-11-03T16:35:02;1.20;;;0.80;;
1625;SDS011;806;48.770;9.156;2022-11-03T16:37:30;1.87;;;1.23;;
1625;SDS011;806;48.770;9.156;2022-11-03T16:39:57;3.57;;;1.00;;
1625;SDS011;806;48.770;9.156;2022-11-03T16:42:25;3.43;;;1.03;;
1625;SDS011;806;48.770;9.156;2022-11-03T16:45:07;1.03;;;0.87;;
1625;SDS011;806;48.770;9.156;2022-11-03T16:47:43;1.47;;;0.93;;
1625;SDS011;806;48.770;9.156;2022-11-03T16:50:13;1.37;;;0.90;;
1625;SDS011;806;48.770;9.156;2022-11-03T16:52:42;1.87;;;1.03;;
1625;SDS011;806;48.770;9.156;2022-11-03T16:55:09;1.70;;;0.87;;
1625;SDS011;806;48.770;9.156;2022-11-03T16:57:37;2.17;;;0.90;;
1625;SDS011;806;48.770;9.156;2022-11-03T17:00:05;1.37;;;1.00;;
1625;SDS011;806;48.770;9.156;2022-11-03T17:02:39;2.23;;;0.90;;
1625;SDS011;806;48.770;9.156;2022-11-03T17:05:09;2.77;;;0.90;;
1625;SDS011;806;48.770;9.156;2022-11-03T17:07:37;1.40;;;0.90;;
1625;SDS011;806;48.770;9.156;2022-11-03T17:10:04;2.50;;;1.00;;
1625;SDS011;806;48.770;9.156;2022-11-03T17:12:32;1.37;;;0.97;;
1625;SDS011;806;48.770;9.156;2022-11-03T17:14:59;1.80;;;1.00;;
1625;SDS011;806;48.770;9.156;2022-11-03T17:17:26;3.53;;;1.13;;
1625;SDS011;806;48.770;9.156;2022-11-03T17:19:55;2.20;;;0.90;;
1625;SDS011;806;48.770;9.156;2022-11-03T17:22:27;4.28;;;2.03;;
1625;SDS011;806;48.770;9.156;2022-11-03T17:25:14;2.97;;;1.70;;
1625;SDS011;806;48.770;9.156;2022-11-03T17:27:42;1.20;;;0.80;;
1625;SDS011;806;48.770;9.156;2022-11-03T17:30:18;1.97;;;1.20;;
1625;SDS011;806;48.770;9.156;2022-11-03T17:32:48;2.78;;;1.30;;
1625;SDS011;806;48.770;9.156;2022-11-03T17:35:19;2.07;;;0.97;;
1625;SDS011;806;48.770;9.156;2022-11-03T17:37:48;1.70;;;1.10;;